Whale Point, California Weather observations

Data are for observation ending at time listed.
 Day   Time    Ave.   Ave.  Ave.  Vector   Max.   Stn.    Total    Solar   Ave.  
  of    of     Air    Rel.  Wind   Wind    Wind   Baro.  Precip.   Rad.    Soil  
Year   Day     Temp.  Hum.  Speed  Dir.    Gust   Pres.                    Temp. 
2015   (PST)    F      %     mph   deg.    mph     mb.     in.     W/m2     F   
------------------------------------------------------------------------------
 106   19:40   63.5    18    9.3    48     12.2   995.6    0.00       0    71.5
 106   19:50   63.2    18    9.7    52     12.3   995.9    0.00       0    71.5
 106   20:00   63.0    18    9.3    52     11.5   995.9    0.00       0    71.4
 106   20:10   63.1    18    8.9    56     11.3   996.3    0.00       0    71.4
 106   20:20   63.2    18    8.4    56     10.7   996.3    0.00       0    71.3
 106   20:30   62.8    19    8.0    60     10.1   996.3    0.00       0    71.3
 106   20:40   63.0    19    7.7    60     10.5   996.3    0.00       0    71.2
 106   20:50   62.7    19    7.9    62     10.3   996.3    0.00       0    71.1
 106   21:00   62.6    20    7.7    63      9.8   996.3    0.00       0    71.1
 106   21:10   63.1    19    7.3    62      9.6   996.3    0.00       0    71.0
 106   21:20   63.6    19    5.7    64      8.0   996.6    0.00       0    70.9
 106   21:30   63.5    20    5.4    62      7.8   996.6    0.00       0    70.8
 106   21:40   62.8    20    5.6    66      7.7   996.6    0.00       0    70.7
 106   21:50   62.4    20    6.3    56      8.0   996.6    0.00       0    70.7
 106   22:00   62.0    22    6.2    64      8.4   996.6    0.00       0    70.6
 106   22:10   63.6    21    4.7    74      6.5   996.6    0.00       0    70.5
 106   22:20   63.4    22    3.8    75      5.9   996.6    0.00       0    70.4
 106   22:30   63.1    22    5.4    77      8.1   997.0    0.00       0    70.3
 106   22:40   62.7    22    6.1    76      9.2   997.0    0.00       0    70.2
 106   22:50   62.0    23    7.6    68     10.0   997.0    0.00       0    70.2
 106   23:00   61.6    24    7.5    65      9.9   997.0    0.00       0    70.1
 106   23:10   61.5    24    7.1    65      9.4   997.0    0.00       0    70.0
 106   23:20   61.7    24    7.0    67      9.4   997.0    0.00       0    69.9
 106   23:30   61.8    24    6.8    69      9.8   996.6    0.00       0    69.8
 106   23:40   61.8    24    7.5    68     10.0   996.6    0.00       0    69.7
 106   23:50   62.2    24    4.2    80      8.0   996.6    0.00       0    69.6
 107    0:00   62.2    23    2.4    81      4.8   996.6    0.00       0    69.6
 107    0:10   62.0    23    3.4    80      5.4   996.6    0.00       0    69.5
 107    0:20   62.5    20    1.7   102      3.4   997.0    0.00       0    69.4
 107    0:30   62.5    22    3.8    74      8.0   997.0    0.00       0    69.3
 107    0:40   61.3    25    6.8    71      9.6   997.0    0.00       0    69.2
 107    0:50   61.3    25    7.1    71      9.1   996.6    0.00       0    69.1
 107    1:00   61.8    24    6.4    69      8.3   996.6    0.00       0    69.0
 107    1:10   61.9    25    4.5    80      7.5   996.6    0.00       0    69.0
 107    1:20   61.8    25    5.5    74      8.2   996.6    0.00       0    68.9
 107    1:30   61.3    25    7.1    71      9.7   996.6    0.00       0    68.8
 107    1:40   61.5    25    7.7    72      9.8   996.6    0.00       0    68.7
 107    1:50   61.4    24    8.3    67     10.7   996.6    0.00       0    68.6
 107    2:00   61.0    25    8.7    65     10.9   996.3    0.00       0    68.6
 107    2:10   61.6    24    7.2    64      9.3   996.3    0.00       0    68.5
 107    2:20   61.7    24    7.2    64      9.9   996.3    0.00       0    68.4
 107    2:30   61.9    24    7.7    68      9.9   996.3    0.00       0    68.3
 107    2:40   61.6    24    7.0    65      9.1   996.3    0.00       0    68.2
 107    2:50   61.4    24    7.2    65      9.2   996.3    0.00       0    68.1
 107    3:00   61.6    24    6.5    69      8.8   996.6    0.00       0    68.1
 107    3:10   61.4    24    7.2    68      9.2   996.3    0.00       0    68.0
 107    3:20   61.3    23    7.2    68      9.6   996.3    0.00       0    67.9
 107    3:30   61.1    24    8.2    62     10.5   996.3    0.00       0    67.8
 107    3:40   61.0    23    8.3    63     10.7   996.3    0.00       0    67.7
 107    3:50   61.3    23    8.8    59     11.3   996.3    0.00       0    67.7
 107    4:00   61.5    22    9.6    57     12.5   996.3    0.00       0    67.6
 107    4:10   61.6    22   10.0    58     12.7   996.3    0.00       0    67.5
 107    4:20   61.9    21    9.7    55     11.8   996.3    0.00       0    67.4
 107    4:30   62.2    21    9.1    59     11.7   995.9    0.00       0    67.4
 107    4:40   62.1    21    9.2    54     11.5   995.9    0.00       0    67.3
 107    4:50   62.1    21    9.3    56     11.5   995.9    0.00       0    67.2
 107    5:00   61.7    21    9.5    61     12.7   996.3    0.00       0    67.1
 107    5:10   61.6    21    9.2    64     12.5   996.3    0.00       0    67.0
 107    5:20   61.6    21    7.9    59     10.6   996.3    0.00       1    67.0
 107    5:30   62.0    21    8.5    62     11.1   996.3    0.00       3    66.9
 107    5:40   62.1    21    8.4    60     10.8   996.3    0.00       7    66.8
 107    5:50   61.9    21    9.1    63     12.1   996.3    0.00      12    66.7
 107    6:00   61.8    21    8.9    62     11.4   996.3    0.00      17    66.7
 107    6:10   61.8    22    8.9    64     11.7   996.3    0.00      21    66.6
 107    6:20   61.9    22    8.3    64     10.6   996.3    0.00      25    66.5
 107    6:30   62.0    22    8.1    60     10.4   996.6    0.00      28    66.5
 107    6:40   62.5    22    7.6    58      9.5   996.6    0.00      32    66.4
 107    6:50   62.9    23    7.3    69     10.8   996.6    0.00      34    66.3
 107    7:00   63.6    23    5.8    71      9.4   997.0    0.00      38    66.3
 107    7:10   63.9    24    3.6    79      8.0   997.0    0.00      41    66.2
 107    7:20   63.9    24    1.5   103      4.8   997.0    0.00      87    66.1
 107    7:30   65.5    24    1.1   231      3.0   997.0    0.00     388    66.1
 107    7:40   65.6    26    1.2   356      2.4   997.0    0.00     433    65.9
 107    7:50   67.2    26    0.7     1      2.3   997.0    0.00     478    65.9
 107    8:00   67.7    26    0.5   341      1.4   997.0    0.00     525    65.8
 107    8:10   67.9    25    0.8   195      2.2   997.0    0.00     557    65.8
 107    8:20   67.0    24    1.4   198      3.2   997.0    0.00     591    65.7
 107    8:30   66.7    24    2.0   186      3.9   997.0    0.00     625    65.7
 107    8:40   67.0    18    2.5   191      3.9   997.3    0.00     657    65.7
 107    8:50   67.4    17    2.8   200      4.0   997.3    0.00     689    65.6
 107    9:00   67.0    20    3.0   188      4.5   997.3    0.00     719    65.6
 107    9:10   66.6    23    3.6   194      5.6   997.3    0.00     749    65.6
 107    9:20   66.3    22    3.6   193      5.6   997.6    0.00     777    65.7
 107    9:30   66.0    22    4.1   198      5.6   997.6    0.00     804    65.7
 107    9:40   65.6    21    3.5   200      5.4   997.6    0.00     830    65.7
 107    9:50   66.0    21    3.5   194      4.7   997.6    0.00     854    65.7
 107   10:00   66.7    21    3.5   193      5.0   998.0    0.00     876    65.7
 107   10:10   67.1    20    3.8   191      6.3   998.0    0.00     897    65.7
 107   10:20   67.3    18    2.7   212      5.7   998.0    0.00     917    65.7
 107   10:30   67.9    14    2.6   193      4.5   998.0    0.00     935    65.7
 107   10:40   67.9    14    3.4   203      4.7   998.0    0.00     951    65.7
 107   10:50   68.7    14    2.9   197      4.7   998.0    0.00     965    65.7
 107   11:00   69.4    14    2.8   184      4.7   998.0    0.00     977    65.7
 107   11:10   69.5    16    2.9   190      4.8   998.0    0.00     989    65.7
 107   11:20   69.4    21    3.3   213      5.7   998.0    0.00     999    65.7
 107   11:30   69.3    17    3.5   211      4.9   998.0    0.00    1008    65.7
 107   11:40   69.7    14    4.6   216      6.3   998.0    0.00    1014    65.8
 107   11:50   70.1    16    4.1   210      5.6   997.6    0.00    1019    65.8
 107   12:00   70.3    16    3.9   205      6.0   997.6    0.00    1021    65.8
 107   12:10   69.8    18    3.5   210      5.6   997.6    0.00    1021    65.9
 107   12:20   69.9    18    2.5   220      5.7   998.0    0.00    1020    65.9
 107   12:30   70.2    21    3.0   236      5.8   997.6    0.00    1017    66.1
 107   12:40   68.1    28    3.3   233      5.4   997.6    0.00    1011    66.1
 107   12:50   67.0    33    3.1   227      5.6   997.6    0.00    1004    66.3
 107   13:00   65.6    44    3.9   210      6.4   997.6    0.00     995    66.5
 107   13:10   66.8    43    3.1   214      5.2   997.3    0.00     985    66.6
 107   13:20   67.1    44    3.5   206      5.6   997.3    0.00     974    66.7
 107   13:30   65.8    54    3.8   195      5.9   997.3    0.00     959    66.9
 107   13:40   65.0    54    3.7   184      6.0   997.0    0.00     944    67.1
 107   13:50   65.4    55    3.9   202      6.6   997.0    0.00     926    67.3
 107   14:00   64.5    57    4.2   193      7.2   997.0    0.00     907    67.5
 107   14:10   65.3    54    3.4   202      5.7   997.0    0.00     887    67.7
 107   14:20   66.1    54    3.1   204      5.6   996.6    0.00     866    67.9
 107   14:30   66.5    52    3.1   207      5.3   996.6    0.00     842    68.1
 107   14:40   64.3    56    3.7   214      6.5   996.6    0.00     816    68.3
 107   14:50   65.4    53    3.3   213      5.7   996.3    0.00     790    68.5
 107   15:00   65.1    53    3.6   219      6.1   996.3    0.00     764    68.7
 107   15:10   64.6    52    3.3   226      6.7   996.3    0.00     735    68.9
 107   15:20   65.2    49    3.8   225      6.6   996.3    0.00     703    69.2
 107   15:30   64.4    54    2.9   196      5.0   996.3    0.00     670    69.4
 107   15:40   65.5    47    3.3   183      6.8   995.9    0.00     636    69.6
 107   15:50   65.6    45    3.3   217      7.6   995.9    0.00     602    69.8
 107   16:00   67.8    34    4.3   253      9.0   995.9    0.00     567    70.0
 107   16:10   70.1    28    4.9   264      9.1   995.9    0.00     532    70.2
 107   16:20   69.0    34    4.1   258      8.8   995.9    0.00     495    70.4
 107   16:30   67.1    42    3.0   239      6.4   995.9    0.00     458    70.6
 107   16:40   64.6    52    3.4   211      6.2   995.9    0.00     419    70.8
 107   16:50   63.6    52    3.7   225      6.9   995.9    0.00     381    71.0
 107   17:00   63.0    49    3.6   247      7.7   995.9    0.00     251    71.2
 107   17:10   64.2    49    3.2   201      8.6   995.9    0.00     302    71.4
 107   17:20   64.4    48    2.8   206      5.3   995.9    0.00     264    71.5
 107   17:30   64.3    39    3.9   250      8.3   995.6    0.00     227    71.7
 107   17:40   65.1    38    3.4   220      9.6   995.6    0.00     190    71.8
 107   17:50   63.2    48    2.4   174      4.2   995.6    0.00     157    71.9
 107   18:00   62.9    41    2.0   202      6.1   995.6    0.00     135    72.1
 107   18:10   64.3    34    1.5   270      5.1   995.6    0.00      91    72.2
 107   18:20   64.3    34    1.2   201      4.4   995.6    0.00      60    72.3
 107   18:30   63.3    39    0.7   163      1.5   995.6    0.00      29    72.4
 107   18:40   61.4    43    0.8    14      2.3   995.6    0.00      10    72.5
 107   18:50   60.4    43    2.0    31      5.1   995.6    0.00       3    72.6
 107   19:00   59.5    49    0.4    77      2.3   995.6    0.00       1    72.6
 107   19:10   58.1    52    0.8    18      2.9   995.6    0.00       0    72.6
 107   19:20   56.9    61    1.2     9      2.1   995.6    0.00       0    72.7
 107   19:30   53.6    74    0.6   191      2.0   995.9    0.00       0    72.7

Return to Whale Point graphs page.


Western Regional Climate Center,wrcc@dri.edu